sensor_id;sensor_type;location;lat;lon;timestamp;P1;durP1;ratioP1;P2;durP2;ratioP2
46377;SDS011;32083;47.360;9.650;2023-11-22T00:01:42;8.88;;;7.97;;
46377;SDS011;32083;47.360;9.650;2023-11-22T05:01:57;14.82;;;10.18;;
46377;SDS011;32083;47.360;9.650;2023-11-22T05:04:23;14.25;;;10.70;;
46377;SDS011;32083;47.360;9.650;2023-11-22T05:06:49;13.40;;;9.55;;
46377;SDS011;32083;47.360;9.650;2023-11-22T05:09:15;13.50;;;10.77;;
46377;SDS011;32083;47.360;9.650;2023-11-22T05:11:44;16.45;;;10.98;;
46377;SDS011;32083;47.360;9.650;2023-11-22T05:14:11;14.85;;;9.57;;
46377;SDS011;32083;47.360;9.650;2023-11-22T05:16:38;15.35;;;10.55;;
46377;SDS011;32083;47.360;9.650;2023-11-22T05:19:04;13.85;;;10.73;;
46377;SDS011;32083;47.360;9.650;2023-11-22T05:21:32;13.98;;;10.60;;
46377;SDS011;32083;47.360;9.650;2023-11-22T05:23:58;13.32;;;10.25;;
46377;SDS011;32083;47.360;9.650;2023-11-22T05:26:24;13.23;;;9.48;;
46377;SDS011;32083;47.360;9.650;2023-11-22T05:28:52;14.93;;;10.13;;
46377;SDS011;32083;47.360;9.650;2023-11-22T05:31:21;12.68;;;9.77;;
46377;SDS011;32083;47.360;9.650;2023-11-22T05:33:48;13.93;;;10.25;;
46377;SDS011;32083;47.360;9.650;2023-11-22T05:36:14;16.08;;;10.45;;
46377;SDS011;32083;47.360;9.650;2023-11-22T05:38:42;15.93;;;10.95;;
46377;SDS011;32083;47.360;9.650;2023-11-22T05:41:08;15.60;;;9.90;;
46377;SDS011;32083;47.360;9.650;2023-11-22T05:43:34;13.18;;;10.00;;
46377;SDS011;32083;47.360;9.650;2023-11-22T05:46:02;13.73;;;9.35;;
46377;SDS011;32083;47.360;9.650;2023-11-22T05:48:28;12.38;;;8.55;;
46377;SDS011;32083;47.360;9.650;2023-11-22T05:50:55;14.40;;;9.77;;
46377;SDS011;32083;47.360;9.650;2023-11-22T05:53:21;13.10;;;9.90;;
46377;SDS011;32083;47.360;9.650;2023-11-22T05:55:50;17.30;;;10.77;;
46377;SDS011;32083;47.360;9.650;2023-11-22T05:58:16;10.93;;;8.48;;
46377;SDS011;32083;47.360;9.650;2023-11-22T06:00:43;11.70;;;8.30;;
46377;SDS011;32083;47.360;9.650;2023-11-22T06:03:13;13.68;;;6.63;;
46377;SDS011;32083;47.360;9.650;2023-11-22T06:05:39;12.10;;;6.53;;
46377;SDS011;32083;47.360;9.650;2023-11-22T06:08:05;9.13;;;6.50;;
46377;SDS011;32083;47.360;9.650;2023-11-22T06:10:31;11.02;;;6.20;;
46377;SDS011;32083;47.360;9.650;2023-11-22T06:12:57;8.93;;;6.90;;
46377;SDS011;32083;47.360;9.650;2023-11-22T06:15:23;7.53;;;6.03;;
46377;SDS011;32083;47.360;9.650;2023-11-22T06:17:49;7.32;;;4.97;;
46377;SDS011;32083;47.360;9.650;2023-11-22T06:20:15;7.07;;;5.68;;
46377;SDS011;32083;47.360;9.650;2023-11-22T06:22:41;7.95;;;5.63;;
46377;SDS011;32083;47.360;9.650;2023-11-22T06:25:11;13.23;;;6.13;;
46377;SDS011;32083;47.360;9.650;2023-11-22T06:27:37;12.05;;;6.82;;
46377;SDS011;32083;47.360;9.650;2023-11-22T06:30:04;11.88;;;6.75;;
46377;SDS011;32083;47.360;9.650;2023-11-22T06:32:31;11.48;;;7.45;;
46377;SDS011;32083;47.360;9.650;2023-11-22T06:34:58;9.55;;;6.20;;
46377;SDS011;32083;47.360;9.650;2023-11-22T06:37:24;12.60;;;7.90;;
46377;SDS011;32083;47.360;9.650;2023-11-22T06:39:51;13.93;;;8.02;;
46377;SDS011;32083;47.360;9.650;2023-11-22T06:42:17;11.75;;;8.13;;
46377;SDS011;32083;47.360;9.650;2023-11-22T06:44:47;12.07;;;7.60;;
46377;SDS011;32083;47.360;9.650;2023-11-22T06:47:13;11.55;;;8.65;;
46377;SDS011;32083;47.360;9.650;2023-11-22T06:49:39;12.70;;;8.52;;
46377;SDS011;32083;47.360;9.650;2023-11-22T06:52:05;10.95;;;7.40;;
46377;SDS011;32083;47.360;9.650;2023-11-22T06:54:31;11.38;;;7.68;;
46377;SDS011;32083;47.360;9.650;2023-11-22T06:56:57;14.32;;;6.95;;
46377;SDS011;32083;47.360;9.650;2023-11-22T06:59:23;8.20;;;6.88;;
46377;SDS011;32083;47.360;9.650;2023-11-22T07:01:49;9.02;;;6.85;;
46377;SDS011;32083;47.360;9.650;2023-11-22T07:04:15;6.65;;;4.30;;
46377;SDS011;32083;47.360;9.650;2023-11-22T07:06:40;6.35;;;4.13;;
46377;SDS011;32083;47.360;9.650;2023-11-22T07:09:07;5.75;;;3.47;;
46377;SDS011;32083;47.360;9.650;2023-11-22T07:11:37;5.40;;;3.67;;
46377;SDS011;32083;47.360;9.650;2023-11-22T07:14:03;4.43;;;2.90;;
46377;SDS011;32083;47.360;9.650;2023-11-22T07:16:29;4.10;;;2.65;;
46377;SDS011;32083;47.360;9.650;2023-11-22T07:18:56;4.32;;;2.50;;
46377;SDS011;32083;47.360;9.650;2023-11-22T07:21:22;2.92;;;2.25;;
46377;SDS011;32083;47.360;9.650;2023-11-22T07:23:48;4.63;;;2.60;;
46377;SDS011;32083;47.360;9.650;2023-11-22T07:26:14;3.15;;;2.20;;
46377;SDS011;32083;47.360;9.650;2023-11-22T07:28:40;3.22;;;2.00;;
46377;SDS011;32083;47.360;9.650;2023-11-22T07:31:09;3.20;;;1.77;;
46377;SDS011;32083;47.360;9.650;2023-11-22T07:33:36;1.95;;;1.45;;
46377;SDS011;32083;47.360;9.650;2023-11-22T07:36:04;1.70;;;1.10;;
46377;SDS011;32083;47.360;9.650;2023-11-22T07:38:30;2.92;;;1.30;;
46377;SDS011;32083;47.360;9.650;2023-11-22T07:40:57;1.70;;;1.08;;
46377;SDS011;32083;47.360;9.650;2023-11-22T07:43:23;2.83;;;0.88;;
46377;SDS011;32083;47.360;9.650;2023-11-22T07:45:49;2.15;;;1.73;;
46377;SDS011;32083;47.360;9.650;2023-11-22T07:48:16;1.42;;;1.15;;
46377;SDS011;32083;47.360;9.650;2023-11-22T07:50:42;1.65;;;1.10;;
46377;SDS011;32083;47.360;9.650;2023-11-22T07:53:12;1.30;;;0.70;;
46377;SDS011;32083;47.360;9.650;2023-11-22T07:55:39;1.65;;;0.70;;
46377;SDS011;32083;47.360;9.650;2023-11-22T07:58:07;1.60;;;0.95;;
46377;SDS011;32083;47.360;9.650;2023-11-22T08:00:33;1.67;;;1.00;;
46377;SDS011;32083;47.360;9.650;2023-11-22T08:03:00;1.65;;;1.02;;
46377;SDS011;32083;47.360;9.650;2023-11-22T08:05:29;2.30;;;1.10;;
46377;SDS011;32083;47.360;9.650;2023-11-22T08:08:00;1.35;;;0.98;;
46377;SDS011;32083;47.360;9.650;2023-11-22T08:10:31;2.47;;;1.70;;
46377;SDS011;32083;47.360;9.650;2023-11-22T08:12:57;2.80;;;2.08;;
46377;SDS011;32083;47.360;9.650;2023-11-22T08:15:23;3.70;;;2.83;;
46377;SDS011;32083;47.360;9.650;2023-11-22T08:17:49;4.88;;;3.00;;
46377;SDS011;32083;47.360;9.650;2023-11-22T08:20:15;4.88;;;3.47;;
46377;SDS011;32083;47.360;9.650;2023-11-22T08:22:42;4.38;;;2.70;;
46377;SDS011;32083;47.360;9.650;2023-11-22T08:25:12;5.32;;;3.28;;
46377;SDS011;32083;47.360;9.650;2023-11-22T08:27:39;5.35;;;3.78;;
46377;SDS011;32083;47.360;9.650;2023-11-22T08:30:07;4.05;;;3.03;;
46377;SDS011;32083;47.360;9.650;2023-11-22T08:32:38;4.07;;;3.28;;
46377;SDS011;32083;47.360;9.650;2023-11-22T08:35:06;6.03;;;4.00;;
46377;SDS011;32083;47.360;9.650;2023-11-22T08:37:33;4.93;;;3.65;;
46377;SDS011;32083;47.360;9.650;2023-11-22T08:40:01;7.10;;;4.50;;
46377;SDS011;32083;47.360;9.650;2023-11-22T08:42:28;7.93;;;3.80;;
46377;SDS011;32083;47.360;9.650;2023-11-22T08:44:56;5.25;;;4.05;;
46377;SDS011;32083;47.360;9.650;2023-11-22T08:47:41;5.45;;;4.32;;
46377;SDS011;32083;47.360;9.650;2023-11-22T08:50:08;7.68;;;3.70;;
46377;SDS011;32083;47.360;9.650;2023-11-22T08:52:38;4.68;;;3.65;;
46377;SDS011;32083;47.360;9.650;2023-11-22T08:55:07;5.18;;;3.72;;
46377;SDS011;32083;47.360;9.650;2023-11-22T08:57:37;5.50;;;4.00;;
46377;SDS011;32083;47.360;9.650;2023-11-22T09:00:03;5.15;;;3.75;;
46377;SDS011;32083;47.360;9.650;2023-11-22T09:02:36;10.95;;;6.55;;
46377;SDS011;32083;47.360;9.650;2023-11-22T09:05:04;5.15;;;3.50;;
46377;SDS011;32083;47.360;9.650;2023-11-22T09:07:33;5.72;;;3.80;;
46377;SDS011;32083;47.360;9.650;2023-11-22T09:10:01;6.70;;;3.85;;
46377;SDS011;32083;47.360;9.650;2023-11-22T09:12:35;4.55;;;3.25;;
46377;SDS011;32083;47.360;9.650;2023-11-22T09:15:02;5.95;;;3.85;;
46377;SDS011;32083;47.360;9.650;2023-11-22T09:17:29;6.05;;;3.72;;
46377;SDS011;32083;47.360;9.650;2023-11-22T09:19:56;5.50;;;3.95;;
46377;SDS011;32083;47.360;9.650;2023-11-22T09:22:23;8.65;;;4.00;;
46377;SDS011;32083;47.360;9.650;2023-11-22T09:24:51;6.00;;;4.10;;
46377;SDS011;32083;47.360;9.650;2023-11-22T09:27:17;5.38;;;3.40;;
46377;SDS011;32083;47.360;9.650;2023-11-22T09:29:43;5.97;;;4.50;;
46377;SDS011;32083;47.360;9.650;2023-11-22T09:32:10;5.75;;;4.38;;
46377;SDS011;32083;47.360;9.650;2023-11-22T09:34:38;5.55;;;3.60;;
46377;SDS011;32083;47.360;9.650;2023-11-22T09:37:04;6.57;;;5.50;;
46377;SDS011;32083;47.360;9.650;2023-11-22T09:39:30;5.68;;;3.88;;
46377;SDS011;32083;47.360;9.650;2023-11-22T09:41:55;5.68;;;4.10;;
46377;SDS011;32083;47.360;9.650;2023-11-22T09:44:22;7.82;;;4.50;;
46377;SDS011;32083;47.360;9.650;2023-11-22T09:46:48;7.35;;;4.03;;
46377;SDS011;32083;47.360;9.650;2023-11-22T09:49:17;7.65;;;4.85;;
46377;SDS011;32083;47.360;9.650;2023-11-22T09:54:16;6.18;;;4.07;;
46377;SDS011;32083;47.360;9.650;2023-11-22T09:56:44;8.93;;;5.28;;
46377;SDS011;32083;47.360;9.650;2023-11-22T09:59:15;6.40;;;5.30;;
46377;SDS011;32083;47.360;9.650;2023-11-22T10:01:44;7.75;;;5.03;;
46377;SDS011;32083;47.360;9.650;2023-11-22T10:04:10;7.85;;;5.30;;
46377;SDS011;32083;47.360;9.650;2023-11-22T10:06:36;8.50;;;4.57;;
46377;SDS011;32083;47.360;9.650;2023-11-22T10:09:03;6.18;;;4.10;;
46377;SDS011;32083;47.360;9.650;2023-11-22T10:11:32;6.28;;;3.85;;
46377;SDS011;32083;47.360;9.650;2023-11-22T10:14:01;6.82;;;4.85;;
46377;SDS011;32083;47.360;9.650;2023-11-22T10:16:28;5.90;;;4.00;;
46377;SDS011;32083;47.360;9.650;2023-11-22T10:18:54;5.82;;;4.38;;
46377;SDS011;32083;47.360;9.650;2023-11-22T10:24:10;6.45;;;4.30;;
46377;SDS011;32083;47.360;9.650;2023-11-22T10:26:35;6.18;;;4.20;;
46377;SDS011;32083;47.360;9.650;2023-11-22T10:29:01;4.75;;;3.58;;
46377;SDS011;32083;47.360;9.650;2023-11-22T10:31:27;4.72;;;3.67;;
46377;SDS011;32083;47.360;9.650;2023-11-22T10:33:54;5.40;;;3.90;;
46377;SDS011;32083;47.360;9.650;2023-11-22T10:36:23;5.90;;;4.28;;
46377;SDS011;32083;47.360;9.650;2023-11-22T10:38:49;5.13;;;4.22;;
46377;SDS011;32083;47.360;9.650;2023-11-22T10:41:19;5.80;;;3.95;;
46377;SDS011;32083;47.360;9.650;2023-11-22T10:43:47;5.22;;;3.80;;
46377;SDS011;32083;47.360;9.650;2023-11-22T10:46:16;4.47;;;2.95;;
46377;SDS011;32083;47.360;9.650;2023-11-22T10:48:43;5.22;;;4.03;;
46377;SDS011;32083;47.360;9.650;2023-11-22T10:51:10;5.22;;;3.88;;
46377;SDS011;32083;47.360;9.650;2023-11-22T10:53:48;4.93;;;3.63;;
46377;SDS011;32083;47.360;9.650;2023-11-22T10:56:15;6.20;;;4.72;;
46377;SDS011;32083;47.360;9.650;2023-11-22T10:58:50;5.00;;;4.00;;
46377;SDS011;32083;47.360;9.650;2023-11-22T11:01:17;5.18;;;4.10;;
46377;SDS011;32083;47.360;9.650;2023-11-22T11:06:31;4.55;;;3.40;;
46377;SDS011;32083;47.360;9.650;2023-11-22T11:09:02;4.35;;;3.10;;
46377;SDS011;32083;47.360;9.650;2023-11-22T11:11:50;4.78;;;3.92;;
46377;SDS011;32083;47.360;9.650;2023-11-22T11:14:16;3.95;;;3.42;;
46377;SDS011;32083;47.360;9.650;2023-11-22T11:16:44;4.63;;;3.40;;
46377;SDS011;32083;47.360;9.650;2023-11-22T11:19:15;4.15;;;3.10;;
46377;SDS011;32083;47.360;9.650;2023-11-22T11:21:47;4.57;;;3.35;;
46377;SDS011;32083;47.360;9.650;2023-11-22T11:24:14;4.32;;;3.22;;
46377;SDS011;32083;47.360;9.650;2023-11-22T11:26:40;4.55;;;3.53;;
46377;SDS011;32083;47.360;9.650;2023-11-22T11:29:28;4.95;;;3.22;;
46377;SDS011;32083;47.360;9.650;2023-11-22T11:31:58;4.60;;;3.40;;
46377;SDS011;32083;47.360;9.650;2023-11-22T11:34:24;4.10;;;3.25;;
46377;SDS011;32083;47.360;9.650;2023-11-22T11:36:53;3.58;;;3.10;;
46377;SDS011;32083;47.360;9.650;2023-11-22T11:39:24;4.25;;;3.03;;
46377;SDS011;32083;47.360;9.650;2023-11-22T11:42:08;4.15;;;2.80;;
46377;SDS011;32083;47.360;9.650;2023-11-22T11:44:50;4.57;;;3.08;;
46377;SDS011;32083;47.360;9.650;2023-11-22T11:47:17;3.42;;;3.03;;
46377;SDS011;32083;47.360;9.650;2023-11-22T11:49:43;5.20;;;3.08;;
46377;SDS011;32083;47.360;9.650;2023-11-22T11:52:10;4.30;;;3.00;;
46377;SDS011;32083;47.360;9.650;2023-11-22T11:54:36;4.45;;;3.20;;
46377;SDS011;32083;47.360;9.650;2023-11-22T11:57:04;4.65;;;3.67;;
46377;SDS011;32083;47.360;9.650;2023-11-22T11:59:31;4.85;;;3.25;;
46377;SDS011;32083;47.360;9.650;2023-11-22T12:01:59;5.22;;;3.75;;
46377;SDS011;32083;47.360;9.650;2023-11-22T12:04:25;5.18;;;3.40;;
46377;SDS011;32083;47.360;9.650;2023-11-22T12:06:51;4.57;;;2.60;;
46377;SDS011;32083;47.360;9.650;2023-11-22T12:09:24;7.57;;;3.63;;
46377;SDS011;32083;47.360;9.650;2023-11-22T12:11:51;4.20;;;3.03;;
46377;SDS011;32083;47.360;9.650;2023-11-22T12:14:23;4.35;;;2.90;;
46377;SDS011;32083;47.360;9.650;2023-11-22T12:16:52;7.28;;;3.28;;
46377;SDS011;32083;47.360;9.650;2023-11-22T12:19:27;4.60;;;3.33;;
46377;SDS011;32083;47.360;9.650;2023-11-22T12:21:56;4.88;;;3.42;;
46377;SDS011;32083;47.360;9.650;2023-11-22T12:24:22;4.45;;;3.42;;
46377;SDS011;32083;47.360;9.650;2023-11-22T12:26:50;4.88;;;3.78;;
46377;SDS011;32083;47.360;9.650;2023-11-22T12:29:19;5.70;;;3.53;;
46377;SDS011;32083;47.360;9.650;2023-11-22T12:31:49;4.40;;;3.60;;
46377;SDS011;32083;47.360;9.650;2023-11-22T12:34:17;5.07;;;3.70;;
46377;SDS011;32083;47.360;9.650;2023-11-22T12:36:43;4.90;;;4.07;;
46377;SDS011;32083;47.360;9.650;2023-11-22T12:39:12;6.05;;;4.15;;
46377;SDS011;32083;47.360;9.650;2023-11-22T12:41:46;6.25;;;3.47;;
46377;SDS011;32083;47.360;9.650;2023-11-22T12:44:13;5.68;;;3.08;;
46377;SDS011;32083;47.360;9.650;2023-11-22T12:49:20;4.70;;;3.40;;
46377;SDS011;32083;47.360;9.650;2023-11-22T12:51:51;4.35;;;3.35;;
46377;SDS011;32083;47.360;9.650;2023-11-22T12:54:18;4.35;;;3.10;;
46377;SDS011;32083;47.360;9.650;2023-11-22T12:56:49;5.45;;;4.47;;
46377;SDS011;32083;47.360;9.650;2023-11-22T12:59:19;4.68;;;3.58;;
46377;SDS011;32083;47.360;9.650;2023-11-22T13:01:45;5.50;;;3.42;;
46377;SDS011;32083;47.360;9.650;2023-11-22T13:04:11;5.60;;;3.42;;
46377;SDS011;32083;47.360;9.650;2023-11-22T13:06:39;5.93;;;4.05;;
46377;SDS011;32083;47.360;9.650;2023-11-22T13:09:05;3.80;;;3.05;;
46377;SDS011;32083;47.360;9.650;2023-11-22T13:11:31;4.32;;;3.10;;
46377;SDS011;32083;47.360;9.650;2023-11-22T13:13:58;5.85;;;4.18;;
46377;SDS011;32083;47.360;9.650;2023-11-22T13:16:24;4.03;;;3.58;;
46377;SDS011;32083;47.360;9.650;2023-11-22T13:18:50;4.18;;;3.38;;
46377;SDS011;32083;47.360;9.650;2023-11-22T13:21:16;4.20;;;3.72;;
46377;SDS011;32083;47.360;9.650;2023-11-22T13:23:42;4.05;;;2.95;;
46377;SDS011;32083;47.360;9.650;2023-11-22T13:26:08;4.10;;;3.08;;
46377;SDS011;32083;47.360;9.650;2023-11-22T13:28:38;3.80;;;2.90;;
46377;SDS011;32083;47.360;9.650;2023-11-22T13:31:06;4.75;;;3.80;;
46377;SDS011;32083;47.360;9.650;2023-11-22T13:33:33;3.90;;;2.92;;
46377;SDS011;32083;47.360;9.650;2023-11-22T13:35:59;5.07;;;3.88;;
46377;SDS011;32083;47.360;9.650;2023-11-22T13:38:25;4.38;;;3.13;;
46377;SDS011;32083;47.360;9.650;2023-11-22T13:40:51;4.25;;;3.58;;
46377;SDS011;32083;47.360;9.650;2023-11-22T13:43:17;6.03;;;4.40;;
46377;SDS011;32083;47.360;9.650;2023-11-22T13:45:45;5.18;;;4.07;;
46377;SDS011;32083;47.360;9.650;2023-11-22T13:48:11;4.95;;;3.97;;
46377;SDS011;32083;47.360;9.650;2023-11-22T13:50:37;5.28;;;4.55;;
46377;SDS011;32083;47.360;9.650;2023-11-22T13:53:03;5.63;;;4.40;;
46377;SDS011;32083;47.360;9.650;2023-11-22T13:55:30;5.75;;;3.95;;
46377;SDS011;32083;47.360;9.650;2023-11-22T13:57:57;6.28;;;4.93;;
46377;SDS011;32083;47.360;9.650;2023-11-22T14:00:25;6.20;;;5.32;;
46377;SDS011;32083;47.360;9.650;2023-11-22T14:02:57;7.57;;;5.50;;
46377;SDS011;32083;47.360;9.650;2023-11-22T14:05:29;7.13;;;5.63;;
46377;SDS011;32083;47.360;9.650;2023-11-22T14:07:55;6.63;;;5.47;;
46377;SDS011;32083;47.360;9.650;2023-11-22T14:10:22;7.68;;;6.07;;
46377;SDS011;32083;47.360;9.650;2023-11-22T14:12:48;7.10;;;5.60;;
46377;SDS011;32083;47.360;9.650;2023-11-22T14:15:15;6.05;;;5.45;;
46377;SDS011;32083;47.360;9.650;2023-11-22T14:17:41;9.57;;;6.43;;
46377;SDS011;32083;47.360;9.650;2023-11-22T14:20:09;9.98;;;7.10;;
46377;SDS011;32083;47.360;9.650;2023-11-22T14:22:36;6.00;;;4.75;;
46377;SDS011;32083;47.360;9.650;2023-11-22T14:25:04;6.88;;;5.35;;
46377;SDS011;32083;47.360;9.650;2023-11-22T14:27:36;5.93;;;4.75;;
46377;SDS011;32083;47.360;9.650;2023-11-22T14:30:03;6.05;;;4.97;;
46377;SDS011;32083;47.360;9.650;2023-11-22T14:32:32;4.75;;;3.97;;
46377;SDS011;32083;47.360;9.650;2023-11-22T14:35:05;6.07;;;4.32;;
46377;SDS011;32083;47.360;9.650;2023-11-22T14:37:35;5.72;;;4.82;;
46377;SDS011;32083;47.360;9.650;2023-11-22T14:40:05;5.70;;;4.38;;
46377;SDS011;32083;47.360;9.650;2023-11-22T14:42:44;5.43;;;4.28;;
46377;SDS011;32083;47.360;9.650;2023-11-22T14:45:14;5.03;;;3.50;;
46377;SDS011;32083;47.360;9.650;2023-11-22T14:47:40;4.78;;;3.42;;
46377;SDS011;32083;47.360;9.650;2023-11-22T14:50:07;6.18;;;4.20;;
46377;SDS011;32083;47.360;9.650;2023-11-22T14:52:37;5.15;;;4.32;;
46377;SDS011;32083;47.360;9.650;2023-11-22T14:55:04;5.75;;;4.43;;
46377;SDS011;32083;47.360;9.650;2023-11-22T14:57:30;7.63;;;4.93;;
46377;SDS011;32083;47.360;9.650;2023-11-22T14:59:56;5.53;;;4.00;;
46377;SDS011;32083;47.360;9.650;2023-11-22T15:02:22;6.72;;;4.50;;
46377;SDS011;32083;47.360;9.650;2023-11-22T15:04:48;7.15;;;5.28;;
46377;SDS011;32083;47.360;9.650;2023-11-22T15:07:14;6.57;;;5.28;;
46377;SDS011;32083;47.360;9.650;2023-11-22T15:09:41;13.80;;;10.35;;
46377;SDS011;32083;47.360;9.650;2023-11-22T15:12:07;7.75;;;7.00;;
46377;SDS011;32083;47.360;9.650;2023-11-22T15:14:34;6.38;;;5.07;;
46377;SDS011;32083;47.360;9.650;2023-11-22T15:17:00;6.72;;;5.38;;
46377;SDS011;32083;47.360;9.650;2023-11-22T15:19:28;6.28;;;5.25;;
46377;SDS011;32083;47.360;9.650;2023-11-22T15:21:55;8.15;;;5.53;;
46377;SDS011;32083;47.360;9.650;2023-11-22T15:24:21;6.85;;;5.68;;
46377;SDS011;32083;47.360;9.650;2023-11-22T15:26:47;7.40;;;6.43;;
46377;SDS011;32083;47.360;9.650;2023-11-22T15:29:13;12.02;;;6.25;;
46377;SDS011;32083;47.360;9.650;2023-11-22T15:31:41;12.95;;;7.97;;
46377;SDS011;32083;47.360;9.650;2023-11-22T15:34:08;6.45;;;5.47;;
46377;SDS011;32083;47.360;9.650;2023-11-22T15:36:36;11.52;;;7.13;;
46377;SDS011;32083;47.360;9.650;2023-11-22T15:39:02;8.80;;;6.60;;
46377;SDS011;32083;47.360;9.650;2023-11-22T15:41:31;8.27;;;5.93;;
46377;SDS011;32083;47.360;9.650;2023-11-22T15:43:57;7.68;;;6.25;;
46377;SDS011;32083;47.360;9.650;2023-11-22T15:46:23;10.75;;;8.43;;
46377;SDS011;32083;47.360;9.650;2023-11-22T15:48:52;9.15;;;7.38;;
46377;SDS011;32083;47.360;9.650;2023-11-22T15:51:19;9.95;;;7.22;;
46377;SDS011;32083;47.360;9.650;2023-11-22T15:53:45;14.73;;;11.45;;
46377;SDS011;32083;47.360;9.650;2023-11-22T15:56:11;10.57;;;8.15;;
46377;SDS011;32083;47.360;9.650;2023-11-22T15:58:43;11.32;;;9.32;;
46377;SDS011;32083;47.360;9.650;2023-11-22T16:01:10;10.65;;;8.52;;
46377;SDS011;32083;47.360;9.650;2023-11-22T16:03:37;15.00;;;12.93;;
46377;SDS011;32083;47.360;9.650;2023-11-22T16:06:06;10.88;;;8.65;;
46377;SDS011;32083;47.360;9.650;2023-11-22T16:08:35;12.02;;;10.30;;
46377;SDS011;32083;47.360;9.650;2023-11-22T16:11:01;13.73;;;10.63;;
46377;SDS011;32083;47.360;9.650;2023-11-22T16:13:27;10.73;;;8.20;;
46377;SDS011;32083;47.360;9.650;2023-11-22T16:15:53;13.85;;;9.45;;
46377;SDS011;32083;47.360;9.650;2023-11-22T16:18:22;11.30;;;8.32;;
46377;SDS011;32083;47.360;9.650;2023-11-22T16:20:57;13.07;;;10.23;;
46377;SDS011;32083;47.360;9.650;2023-11-22T16:23:27;13.18;;;9.75;;
46377;SDS011;32083;47.360;9.650;2023-11-22T16:25:53;11.38;;;7.57;;
46377;SDS011;32083;47.360;9.650;2023-11-22T16:28:19;11.35;;;8.70;;
46377;SDS011;32083;47.360;9.650;2023-11-22T16:30:46;12.00;;;9.48;;
46377;SDS011;32083;47.360;9.650;2023-11-22T16:33:12;11.10;;;8.90;;
46377;SDS011;32083;47.360;9.650;2023-11-22T16:35:40;12.43;;;9.13;;
46377;SDS011;32083;47.360;9.650;2023-11-22T16:38:06;15.50;;;10.27;;
46377;SDS011;32083;47.360;9.650;2023-11-22T16:40:32;15.40;;;10.27;;
46377;SDS011;32083;47.360;9.650;2023-11-22T16:42:58;13.32;;;10.23;;
46377;SDS011;32083;47.360;9.650;2023-11-22T16:45:24;12.52;;;10.02;;
46377;SDS011;32083;47.360;9.650;2023-11-22T16:47:50;16.75;;;10.57;;
46377;SDS011;32083;47.360;9.650;2023-11-22T16:50:20;12.07;;;9.50;;
46377;SDS011;32083;47.360;9.650;2023-11-22T16:52:46;12.70;;;9.13;;
46377;SDS011;32083;47.360;9.650;2023-11-22T16:55:12;12.48;;;8.95;;
46377;SDS011;32083;47.360;9.650;2023-11-22T16:57:39;12.65;;;9.43;;
46377;SDS011;32083;47.360;9.650;2023-11-22T17:00:06;14.20;;;10.63;;
46377;SDS011;32083;47.360;9.650;2023-11-22T17:02:42;11.68;;;9.80;;
46377;SDS011;32083;47.360;9.650;2023-11-22T17:05:20;14.63;;;10.23;;
46377;SDS011;32083;47.360;9.650;2023-11-22T17:07:46;13.45;;;9.38;;
46377;SDS011;32083;47.360;9.650;2023-11-22T17:10:12;14.77;;;10.20;;
46377;SDS011;32083;47.360;9.650;2023-11-22T17:12:38;12.07;;;9.50;;
46377;SDS011;32083;47.360;9.650;2023-11-22T17:15:05;14.05;;;9.90;;
46377;SDS011;32083;47.360;9.650;2023-11-22T17:17:31;11.30;;;9.48;;
46377;SDS011;32083;47.360;9.650;2023-11-22T17:19:57;14.52;;;10.48;;
46377;SDS011;32083;47.360;9.650;2023-11-22T17:22:25;13.43;;;9.52;;
46377;SDS011;32083;47.360;9.650;2023-11-22T17:24:53;13.05;;;10.07;;
46377;SDS011;32083;47.360;9.650;2023-11-22T17:27:19;13.30;;;9.95;;
46377;SDS011;32083;47.360;9.650;2023-11-22T17:29:45;11.98;;;9.38;;
46377;SDS011;32083;47.360;9.650;2023-11-22T17:32:16;14.00;;;10.32;;
46377;SDS011;32083;47.360;9.650;2023-11-22T17:34:42;11.48;;;9.85;;
46377;SDS011;32083;47.360;9.650;2023-11-22T17:37:08;12.45;;;9.73;;
46377;SDS011;32083;47.360;9.650;2023-11-22T17:39:34;12.52;;;10.07;;
46377;SDS011;32083;47.360;9.650;2023-11-22T17:42:00;13.70;;;10.30;;
46377;SDS011;32083;47.360;9.650;2023-11-22T17:44:26;13.75;;;9.85;;
46377;SDS011;32083;47.360;9.650;2023-11-22T17:46:52;12.75;;;9.73;;
46377;SDS011;32083;47.360;9.650;2023-11-22T17:49:19;13.65;;;11.02;;
46377;SDS011;32083;47.360;9.650;2023-11-22T17:51:45;14.40;;;10.07;;
46377;SDS011;32083;47.360;9.650;2023-11-22T17:54:18;12.68;;;9.90;;
46377;SDS011;32083;47.360;9.650;2023-11-22T17:56:44;13.85;;;11.55;;
46377;SDS011;32083;47.360;9.650;2023-11-22T17:59:12;17.42;;;11.07;;
46377;SDS011;32083;47.360;9.650;2023-11-22T18:01:38;15.77;;;10.98;;
46377;SDS011;32083;47.360;9.650;2023-11-22T18:04:04;12.63;;;10.20;;
46377;SDS011;32083;47.360;9.650;2023-11-22T18:06:31;17.23;;;11.18;;
46377;SDS011;32083;47.360;9.650;2023-11-22T18:08:57;19.92;;;12.02;;
46377;SDS011;32083;47.360;9.650;2023-11-22T18:11:23;15.35;;;11.40;;
46377;SDS011;32083;47.360;9.650;2023-11-22T18:13:52;14.20;;;11.05;;
46377;SDS011;32083;47.360;9.650;2023-11-22T18:16:21;12.10;;;9.95;;
46377;SDS011;32083;47.360;9.650;2023-11-22T18:18:47;11.15;;;9.55;;
46377;SDS011;32083;47.360;9.650;2023-11-22T18:21:13;13.93;;;10.13;;
46377;SDS011;32083;47.360;9.650;2023-11-22T18:23:39;13.27;;;10.65;;
46377;SDS011;32083;47.360;9.650;2023-11-22T18:26:11;13.25;;;9.70;;
46377;SDS011;32083;47.360;9.650;2023-11-22T18:28:38;13.80;;;10.63;;
46377;SDS011;32083;47.360;9.650;2023-11-22T18:31:04;14.18;;;10.23;;
46377;SDS011;32083;47.360;9.650;2023-11-22T18:33:32;15.90;;;11.38;;
46377;SDS011;32083;47.360;9.650;2023-11-22T18:35:58;13.93;;;10.98;;
46377;SDS011;32083;47.360;9.650;2023-11-22T18:38:25;15.43;;;11.27;;
46377;SDS011;32083;47.360;9.650;2023-11-22T18:40:52;13.68;;;10.48;;
46377;SDS011;32083;47.360;9.650;2023-11-22T18:43:18;15.38;;;11.32;;
46377;SDS011;32083;47.360;9.650;2023-11-22T18:45:44;13.32;;;10.63;;
46377;SDS011;32083;47.360;9.650;2023-11-22T18:48:13;23.98;;;17.95;;
46377;SDS011;32083;47.360;9.650;2023-11-22T18:50:40;27.02;;;18.48;;
46377;SDS011;32083;47.360;9.650;2023-11-22T18:53:06;17.40;;;12.50;;
46377;SDS011;32083;47.360;9.650;2023-11-22T18:55:32;14.43;;;10.90;;
46377;SDS011;32083;47.360;9.650;2023-11-22T18:57:58;14.48;;;11.18;;
46377;SDS011;32083;47.360;9.650;2023-11-22T19:00:24;17.60;;;13.43;;
46377;SDS011;32083;47.360;9.650;2023-11-22T19:02:50;15.55;;;11.65;;
46377;SDS011;32083;47.360;9.650;2023-11-22T19:05:16;13.20;;;10.63;;
46377;SDS011;32083;47.360;9.650;2023-11-22T19:07:42;13.60;;;10.30;;
46377;SDS011;32083;47.360;9.650;2023-11-22T19:10:10;21.40;;;15.73;;
46377;SDS011;32083;47.360;9.650;2023-11-22T19:12:36;39.88;;;26.10;;
46377;SDS011;32083;47.360;9.650;2023-11-22T19:15:06;19.70;;;12.35;;
46377;SDS011;32083;47.360;9.650;2023-11-22T19:17:33;18.02;;;13.07;;
46377;SDS011;32083;47.360;9.650;2023-11-22T19:19:59;13.80;;;10.23;;
46377;SDS011;32083;47.360;9.650;2023-11-22T19:22:25;16.08;;;11.88;;
46377;SDS011;32083;47.360;9.650;2023-11-22T19:24:52;16.63;;;10.27;;
46377;SDS011;32083;47.360;9.650;2023-11-22T19:27:18;15.40;;;11.05;;
46377;SDS011;32083;47.360;9.650;2023-11-22T19:29:45;16.63;;;11.98;;
46377;SDS011;32083;47.360;9.650;2023-11-22T19:32:11;23.42;;;17.60;;
46377;SDS011;32083;47.360;9.650;2023-11-22T19:34:42;15.05;;;12.55;;
46377;SDS011;32083;47.360;9.650;2023-11-22T19:37:09;17.48;;;11.05;;
46377;SDS011;32083;47.360;9.650;2023-11-22T19:39:36;12.93;;;10.43;;
46377;SDS011;32083;47.360;9.650;2023-11-22T19:42:02;14.57;;;9.90;;
46377;SDS011;32083;47.360;9.650;2023-11-22T19:44:29;14.45;;;10.25;;
46377;SDS011;32083;47.360;9.650;2023-11-22T19:46:55;14.73;;;10.35;;
46377;SDS011;32083;47.360;9.650;2023-11-22T19:49:21;15.45;;;10.50;;